createdAt,value
2018-07-08T11:01:26.811Z,12.30
2018-07-08T11:20:19.454Z,9.80
2018-07-08T11:21:26.561Z,10.60
2018-07-08T11:22:26.535Z,10.89
2018-07-08T11:23:26.525Z,11.30
2018-07-08T11:24:01.483Z,9.89
2018-07-08T11:25:01.455Z,10.00
2018-07-08T11:26:24.737Z,9.19
2018-07-08T11:27:24.702Z,9.50
2018-07-08T11:28:24.679Z,9.10
2018-07-08T11:29:24.663Z,9.19
2018-07-08T11:30:24.640Z,9.10
2018-07-08T11:31:24.618Z,9.50
2018-07-08T11:32:24.598Z,10.10
2018-07-08T11:33:24.588Z,9.10
2018-07-08T11:34:24.587Z,8.10
2018-07-08T11:35:24.524Z,8.60
2018-07-08T11:36:24.497Z,5.80
2018-07-08T11:37:24.472Z,6.50
2018-07-08T11:38:24.449Z,5.69
2018-07-08T11:39:24.433Z,8.00
2018-07-08T11:40:24.411Z,7.30
2018-07-08T11:41:24.390Z,7.50
2018-07-08T11:42:24.363Z,7.59
2018-07-08T11:43:24.337Z,7.59
2018-07-08T11:44:24.303Z,7.80
2018-07-08T11:45:24.275Z,7.80
2018-07-08T11:46:24.267Z,7.19
2018-07-08T11:47:24.208Z,7.69
2018-07-08T11:48:24.173Z,7.30
2018-07-08T11:49:24.136Z,7.09
2018-07-08T11:50:24.098Z,8.00
2018-07-08T11:51:24.071Z,8.10
2018-07-08T11:52:24.030Z,7.00
2018-07-08T11:53:23.982Z,7.19
2018-07-08T11:54:23.946Z,8.00
2018-07-08T11:55:23.965Z,7.69
2018-07-08T11:56:23.871Z,7.00
2018-07-08T11:57:23.832Z,7.19
2018-07-08T11:58:23.796Z,7.69
2018-07-08T11:59:01.945Z,6.90
2018-07-08T12:00:01.916Z,6.80
2018-07-08T12:00:44.339Z,6.40
2018-07-08T12:01:38.307Z,6.50
2018-07-08T12:02:38.081Z,6.30
2018-07-08T12:03:38.073Z,6.30
2018-07-08T12:04:29.518Z,5.90
2018-07-08T12:04:59.524Z,6.00
2018-07-08T12:05:29.493Z,6.69
2018-07-08T12:05:59.479Z,6.59
2018-07-08T12:06:29.503Z,6.00
2018-07-08T12:06:59.449Z,6.50
2018-07-08T12:07:29.431Z,6.50
2018-07-08T12:07:59.673Z,6.59
2018-07-08T12:08:29.411Z,6.90
2018-07-08T12:08:59.428Z,6.59
2018-07-08T12:09:29.374Z,6.59
2018-07-08T12:09:59.359Z,6.30
2018-07-08T12:10:29.346Z,6.40
2018-07-08T12:10:59.332Z,6.00
2018-07-08T12:11:29.316Z,6.59
2018-07-08T12:11:59.301Z,5.50
2018-07-08T12:12:29.289Z,6.59
2018-07-08T12:12:59.273Z,6.69
2018-07-08T12:13:29.259Z,6.50
2018-07-08T12:13:59.244Z,6.00
2018-07-08T12:14:29.289Z,6.40
2018-07-08T12:14:59.220Z,6.00
2018-07-08T12:15:29.206Z,5.90
2018-07-08T12:15:59.194Z,6.30
2018-07-08T12:16:29.183Z,6.30
2018-07-08T12:16:59.167Z,6.50
2018-07-08T12:17:29.154Z,6.40
2018-07-08T12:18:07.106Z,5.90
2018-07-08T12:18:47.471Z,5.50
2018-07-08T12:19:47.258Z,5.69
2018-07-08T12:20:19.582Z,5.90
2018-07-08T12:21:33.161Z,5.59
2018-07-08T12:24:02.204Z,5.69
2018-07-08T12:25:02.200Z,5.69
2018-07-08T12:26:02.187Z,5.69
2018-07-08T12:27:02.169Z,4.90
2018-07-08T12:28:02.154Z,5.40
2018-07-08T12:29:02.133Z,5.30
2018-07-08T12:30:02.114Z,5.00
2018-07-08T12:31:02.093Z,4.09
2018-07-08T12:32:02.070Z,5.19
2018-07-08T12:33:02.045Z,5.59
2018-07-08T12:34:02.019Z,4.59
2018-07-08T12:35:01.993Z,4.30
2018-07-08T12:36:01.968Z,4.69
2018-07-08T12:37:01.933Z,4.50
2018-07-08T12:38:01.898Z,5.09
2018-07-08T12:39:01.871Z,4.90
2018-07-08T12:40:01.836Z,4.80
2018-07-08T12:41:01.801Z,5.00
2018-07-08T12:42:01.774Z,4.40
2018-07-08T12:43:01.743Z,4.09
2018-07-08T12:44:01.724Z,3.79
2018-07-08T12:45:01.687Z,4.50
2018-07-08T12:46:01.655Z,4.50
2018-07-08T12:47:01.653Z,4.69
2018-07-08T12:48:01.603Z,4.19
2018-07-08T12:49:01.573Z,4.69
2018-07-08T12:50:01.545Z,3.90
2018-07-08T12:51:01.512Z,4.40
2018-07-08T12:52:01.483Z,4.50
2018-07-08T12:53:01.505Z,4.19
2018-07-08T12:54:01.429Z,3.90
2018-07-08T12:55:01.405Z,4.50
2018-07-08T12:56:01.375Z,4.50
2018-07-08T12:57:01.346Z,4.19
2018-07-08T12:58:01.317Z,3.90
2018-07-08T12:59:01.314Z,3.70
2018-07-08T13:00:01.263Z,4.00
2018-07-08T13:01:01.230Z,3.79
2018-07-08T13:02:01.208Z,3.90
2018-07-08T13:03:01.175Z,4.00
2018-07-08T13:04:01.146Z,3.79
2018-07-08T13:05:01.117Z,3.79
2018-07-08T13:06:01.088Z,4.19
2018-07-08T13:07:01.058Z,4.09
2018-07-08T13:08:01.031Z,3.59
2018-07-08T13:09:01.002Z,3.79
2018-07-08T13:10:00.970Z,3.90
2018-07-08T13:11:00.947Z,3.59
2018-07-08T13:12:00.917Z,3.59
2018-07-08T13:13:00.890Z,4.00
2018-07-08T13:14:00.865Z,3.59
2018-07-08T13:15:00.841Z,3.59
2018-07-08T13:16:00.815Z,3.79
2018-07-08T13:17:00.787Z,3.40
2018-07-08T13:18:00.768Z,3.50
2018-07-08T13:19:00.734Z,3.59
2018-07-08T17:29:32.221Z,3.59
2018-07-08T17:30:32.135Z,3.70
2018-07-08T17:31:32.068Z,3.59
2018-07-08T17:32:31.992Z,3.59
2018-07-08T17:33:32.029Z,3.79
2018-07-08T17:34:31.803Z,3.50
2018-07-08T17:35:31.699Z,3.50
2018-07-08T17:36:31.595Z,3.29
2018-07-08T17:37:31.484Z,3.20
2018-07-08T17:38:31.372Z,3.29
2018-07-08T17:39:31.261Z,3.00
2018-07-08T17:40:31.147Z,3.09
2018-07-08T17:41:31.029Z,3.09
2018-07-08T17:42:30.912Z,3.20
2018-07-08T17:43:30.791Z,3.09
2018-07-08T17:44:30.667Z,3.00
2018-07-08T17:45:30.547Z,2.90
2018-07-08T17:46:30.500Z,2.90
2018-07-08T17:47:30.285Z,2.90
2018-07-08T17:48:30.159Z,2.90
2018-07-08T17:49:30.030Z,3.09
2018-07-08T17:50:29.895Z,2.90
